sensor_id;sensor_type;location;lat;lon;timestamp;pressure;altitude;pressure_sealevel;temperature;humidity
13050;BME280;6591;51.446;5.404;2022-12-07T00:01:43;101535.78;;;11.20;53.52
13050;BME280;6591;51.446;5.404;2022-12-07T00:04:13;101538.66;;;11.14;53.44
13050;BME280;6591;51.446;5.404;2022-12-07T00:06:44;101537.09;;;11.08;53.61
13050;BME280;6591;51.446;5.404;2022-12-07T00:09:17;101547.94;;;11.02;53.49
13050;BME280;6591;51.446;5.404;2022-12-07T00:11:50;101533.06;;;10.96;53.08
13050;BME280;6591;51.446;5.404;2022-12-07T00:14:18;101530.59;;;10.92;53.62
13050;BME280;6591;51.446;5.404;2022-12-07T00:16:48;101521.03;;;10.86;53.14
13050;BME280;6591;51.446;5.404;2022-12-07T00:19:17;101523.81;;;10.83;53.26
13050;BME280;6591;51.446;5.404;2022-12-07T00:21:44;101526.69;;;10.77;53.19
13050;BME280;6591;51.446;5.404;2022-12-07T00:24:12;101522.50;;;10.70;53.14
13050;BME280;6591;51.446;5.404;2022-12-07T00:26:41;101517.41;;;10.64;53.69
13050;BME280;6591;51.446;5.404;2022-12-07T00:29:18;101515.81;;;10.58;53.54
13050;BME280;6591;51.446;5.404;2022-12-07T00:31:45;101515.06;;;10.55;53.76
13050;BME280;6591;51.446;5.404;2022-12-07T00:34:17;101510.78;;;10.51;53.40
13050;BME280;6591;51.446;5.404;2022-12-07T00:36:44;101516.19;;;10.48;53.75
13050;BME280;6591;51.446;5.404;2022-12-07T00:39:11;101509.25;;;10.44;53.68
13050;BME280;6591;51.446;5.404;2022-12-07T00:41:38;101512.03;;;10.41;54.13
13050;BME280;6591;51.446;5.404;2022-12-07T00:44:05;101502.38;;;10.38;54.31
13050;BME280;6591;51.446;5.404;2022-12-07T00:46:33;101511.25;;;10.37;54.25
13050;BME280;6591;51.446;5.404;2022-12-07T00:49:00;101513.97;;;10.36;54.20
13050;BME280;6591;51.446;5.404;2022-12-07T00:51:27;101506.00;;;10.36;54.38
13050;BME280;6591;51.446;5.404;2022-12-07T00:53:54;101501.59;;;10.35;54.16
13050;BME280;6591;51.446;5.404;2022-12-07T00:56:27;101499.88;;;10.34;54.61
13050;BME280;6591;51.446;5.404;2022-12-07T00:59:03;101494.56;;;10.34;54.69
13050;BME280;6591;51.446;5.404;2022-12-07T01:01:34;101498.97;;;10.35;54.76
13050;BME280;6591;51.446;5.404;2022-12-07T01:04:03;101500.63;;;10.37;54.81
13050;BME280;6591;51.446;5.404;2022-12-07T01:06:30;101497.94;;;10.39;54.39
13050;BME280;6591;51.446;5.404;2022-12-07T01:08:58;101504.06;;;10.41;54.36
13050;BME280;6591;51.446;5.404;2022-12-07T01:11:29;101504.06;;;10.41;54.40
13050;BME280;6591;51.446;5.404;2022-12-07T01:13:59;101502.31;;;10.40;53.88
13050;BME280;6591;51.446;5.404;2022-12-07T01:16:31;101503.22;;;10.39;54.13
13050;BME280;6591;51.446;5.404;2022-12-07T01:19:00;101510.38;;;10.37;53.68
13050;BME280;6591;51.446;5.404;2022-12-07T01:21:31;101500.78;;;10.33;53.73
13050;BME280;6591;51.446;5.404;2022-12-07T01:24:04;101505.28;;;10.31;54.10
13050;BME280;6591;51.446;5.404;2022-12-07T01:26:31;101503.59;;;10.28;54.08
13050;BME280;6591;51.446;5.404;2022-12-07T01:28:58;101509.03;;;10.25;54.42
13050;BME280;6591;51.446;5.404;2022-12-07T01:31:28;101503.78;;;10.22;54.17
13050;BME280;6591;51.446;5.404;2022-12-07T01:33:59;101510.00;;;10.21;54.47
13050;BME280;6591;51.446;5.404;2022-12-07T01:36:32;101511.78;;;10.20;54.69
13050;BME280;6591;51.446;5.404;2022-12-07T01:39:07;101498.50;;;10.22;54.52
13050;BME280;6591;51.446;5.404;2022-12-07T01:41:39;101503.72;;;10.25;54.78
13050;BME280;6591;51.446;5.404;2022-12-07T01:44:15;101511.56;;;10.28;55.18
13050;BME280;6591;51.446;5.404;2022-12-07T01:46:51;101507.06;;;10.30;54.89
13050;BME280;6591;51.446;5.404;2022-12-07T01:49:25;101510.38;;;10.37;55.21
13050;BME280;6591;51.446;5.404;2022-12-07T01:52:01;101505.84;;;10.40;54.74
13050;BME280;6591;51.446;5.404;2022-12-07T01:54:34;101507.44;;;10.46;55.21
13050;BME280;6591;51.446;5.404;2022-12-07T01:57:03;101518.81;;;10.49;54.91
13050;BME280;6591;51.446;5.404;2022-12-07T01:59:31;101518.75;;;10.51;54.75
13050;BME280;6591;51.446;5.404;2022-12-07T02:01:59;101515.97;;;10.54;55.11
13050;BME280;6591;51.446;5.404;2022-12-07T02:05:02;101502.81;;;10.51;54.99
13050;BME280;6591;51.446;5.404;2022-12-07T02:08:05;101492.84;;;10.57;54.98
13050;BME280;6591;51.446;5.404;2022-12-07T02:11:03;101495.38;;;10.62;54.70
13050;BME280;6591;51.446;5.404;2022-12-07T02:14:24;101491.66;;;10.66;54.84
13050;BME280;6591;51.446;5.404;2022-12-07T02:17:11;101488.19;;;10.64;54.73
13050;BME280;6591;51.446;5.404;2022-12-07T02:20:17;101487.16;;;10.68;54.50
13050;BME280;6591;51.446;5.404;2022-12-07T02:23:30;101496.00;;;10.69;54.56
13050;BME280;6591;51.446;5.404;2022-12-07T02:33:03;101496.16;;;10.64;54.56
13050;BME280;6591;51.446;5.404;2022-12-07T02:36:18;101492.59;;;10.65;54.10
13050;BME280;6591;51.446;5.404;2022-12-07T02:39:15;101490.88;;;10.62;54.16
13050;BME280;6591;51.446;5.404;2022-12-07T02:42:26;101484.94;;;10.56;54.32
13050;BME280;6591;51.446;5.404;2022-12-07T02:45:02;101498.00;;;10.62;54.09
13050;BME280;6591;51.446;5.404;2022-12-07T02:47:53;101493.78;;;10.56;53.80
13050;BME280;6591;51.446;5.404;2022-12-07T02:50:47;101489.44;;;10.54;53.96
13050;BME280;6591;51.446;5.404;2022-12-07T02:54:21;101490.47;;;10.50;53.87
13050;BME280;6591;51.446;5.404;2022-12-07T02:57:28;101489.72;;;10.46;54.01
13050;BME280;6591;51.446;5.404;2022-12-07T03:00:19;101490.56;;;10.47;54.40
13050;BME280;6591;51.446;5.404;2022-12-07T03:03:15;101496.84;;;10.44;54.44
13050;BME280;6591;51.446;5.404;2022-12-07T03:21:28;101489.41;;;10.29;54.80
13050;BME280;6591;51.446;5.404;2022-12-07T03:24:14;101499.88;;;10.34;54.67
13050;BME280;6591;51.446;5.404;2022-12-07T03:27:44;101492.06;;;10.29;54.67
13050;BME280;6591;51.446;5.404;2022-12-07T03:30:23;101478.75;;;10.31;54.51
13050;BME280;6591;51.446;5.404;2022-12-07T03:33:05;101487.44;;;10.36;54.41
13050;BME280;6591;51.446;5.404;2022-12-07T03:35:53;101480.38;;;10.35;54.47
13050;BME280;6591;51.446;5.404;2022-12-07T03:38:54;101482.13;;;10.36;54.30
13050;BME280;6591;51.446;5.404;2022-12-07T03:41:44;101484.69;;;10.37;54.50
13050;BME280;6591;51.446;5.404;2022-12-07T03:44:44;101482.91;;;10.38;54.25
13050;BME280;6591;51.446;5.404;2022-12-07T03:48:06;101475.16;;;10.32;54.36
13050;BME280;6591;51.446;5.404;2022-12-07T03:50:45;101485.72;;;10.33;54.87
13050;BME280;6591;51.446;5.404;2022-12-07T03:53:24;101485.84;;;10.30;54.92
13050;BME280;6591;51.446;5.404;2022-12-07T03:55:58;101489.97;;;10.39;55.12
13050;BME280;6591;51.446;5.404;2022-12-07T03:58:26;101496.97;;;10.41;54.70
13050;BME280;6591;51.446;5.404;2022-12-07T04:00:57;101488.06;;;10.42;55.12
13050;BME280;6591;51.446;5.404;2022-12-07T04:03:33;101493.16;;;10.48;55.17
13050;BME280;6591;51.446;5.404;2022-12-07T04:06:04;101490.41;;;10.51;54.98
13050;BME280;6591;51.446;5.404;2022-12-07T04:08:32;101491.13;;;10.56;54.95
13050;BME280;6591;51.446;5.404;2022-12-07T04:11:09;101484.81;;;10.59;55.13
13050;BME280;6591;51.446;5.404;2022-12-07T04:13:37;101483.03;;;10.59;54.52
13050;BME280;6591;51.446;5.404;2022-12-07T04:16:25;101488.19;;;10.64;54.77
13050;BME280;6591;51.446;5.404;2022-12-07T04:18:55;101477.56;;;10.64;54.90
13050;BME280;6591;51.446;5.404;2022-12-07T04:21:29;101486.16;;;10.72;54.93
13050;BME280;6591;51.446;5.404;2022-12-07T04:24:15;101485.97;;;10.77;55.26
13050;BME280;6591;51.446;5.404;2022-12-07T04:26:44;101484.88;;;10.82;55.08
13050;BME280;6591;51.446;5.404;2022-12-07T04:29:30;101484.81;;;10.84;55.01
13050;BME280;6591;51.446;5.404;2022-12-07T04:32:05;101480.28;;;10.87;54.66
13050;BME280;6591;51.446;5.404;2022-12-07T04:34:46;101474.88;;;10.89;54.72
13050;BME280;6591;51.446;5.404;2022-12-07T04:37:36;101471.28;;;10.91;55.21
13050;BME280;6591;51.446;5.404;2022-12-07T04:40:10;101470.22;;;10.95;54.78
13050;BME280;6591;51.446;5.404;2022-12-07T04:42:48;101473.69;;;10.97;54.90
13050;BME280;6591;51.446;5.404;2022-12-07T04:45:33;101465.56;;;11.02;54.88
13050;BME280;6591;51.446;5.404;2022-12-07T04:48:00;101468.16;;;11.03;55.05
13050;BME280;6591;51.446;5.404;2022-12-07T04:50:27;101468.97;;;11.05;55.27
13050;BME280;6591;51.446;5.404;2022-12-07T04:52:54;101469.78;;;11.08;55.31
13050;BME280;6591;51.446;5.404;2022-12-07T04:55:21;101467.88;;;11.11;55.16
13050;BME280;6591;51.446;5.404;2022-12-07T04:57:48;101478.50;;;11.11;55.26
13050;BME280;6591;51.446;5.404;2022-12-07T05:00:15;101470.47;;;11.13;55.00
13050;BME280;6591;51.446;5.404;2022-12-07T05:02:42;101477.53;;;11.14;55.36
13050;BME280;6591;51.446;5.404;2022-12-07T05:05:09;101468.63;;;11.15;55.14
13050;BME280;6591;51.446;5.404;2022-12-07T05:07:36;101470.34;;;11.16;55.25
13050;BME280;6591;51.446;5.404;2022-12-07T05:10:05;101467.63;;;11.17;55.78
13050;BME280;6591;51.446;5.404;2022-12-07T05:12:32;101461.47;;;11.17;54.94
13050;BME280;6591;51.446;5.404;2022-12-07T05:14:59;101460.50;;;11.19;55.09
13050;BME280;6591;51.446;5.404;2022-12-07T05:17:26;101461.34;;;11.20;55.22
13050;BME280;6591;51.446;5.404;2022-12-07T05:19:53;101459.50;;;11.22;54.97
13050;BME280;6591;51.446;5.404;2022-12-07T05:22:19;101455.91;;;11.23;55.14
13050;BME280;6591;51.446;5.404;2022-12-07T05:24:46;101461.97;;;11.26;55.52
13050;BME280;6591;51.446;5.404;2022-12-07T05:27:13;101461.00;;;11.29;54.78
13050;BME280;6591;51.446;5.404;2022-12-07T05:29:40;101460.94;;;11.30;54.89
13050;BME280;6591;51.446;5.404;2022-12-07T05:32:07;101453.81;;;11.31;55.10
13050;BME280;6591;51.446;5.404;2022-12-07T05:34:35;101460.81;;;11.33;54.57
13050;BME280;6591;51.446;5.404;2022-12-07T05:37:02;101456.41;;;11.32;54.55
13050;BME280;6591;51.446;5.404;2022-12-07T05:39:31;101452.97;;;11.30;54.57
13050;BME280;6591;51.446;5.404;2022-12-07T05:41:58;101449.50;;;11.28;54.73
13050;BME280;6591;51.446;5.404;2022-12-07T05:44:45;101448.84;;;11.22;54.50
13050;BME280;6591;51.446;5.404;2022-12-07T05:47:14;101456.97;;;11.19;53.98
13050;BME280;6591;51.446;5.404;2022-12-07T05:49:41;101448.34;;;11.12;54.00
13050;BME280;6591;51.446;5.404;2022-12-07T05:52:08;101444.94;;;11.09;54.01
13050;BME280;6591;51.446;5.404;2022-12-07T05:54:36;101442.50;;;11.02;53.41
13050;BME280;6591;51.446;5.404;2022-12-07T05:57:03;101442.75;;;10.96;53.64
13050;BME280;6591;51.446;5.404;2022-12-07T05:59:30;101442.19;;;10.88;53.53
13050;BME280;6591;51.446;5.404;2022-12-07T06:02:04;101447.75;;;10.81;53.43
13050;BME280;6591;51.446;5.404;2022-12-07T06:04:38;101440.06;;;10.73;53.63
13050;BME280;6591;51.446;5.404;2022-12-07T06:07:07;101451.78;;;10.68;53.61
13050;BME280;6591;51.446;5.404;2022-12-07T06:09:36;101449.28;;;10.63;53.33
13050;BME280;6591;51.446;5.404;2022-12-07T06:12:05;101450.44;;;10.56;53.38
13050;BME280;6591;51.446;5.404;2022-12-07T06:14:51;101451.59;;;10.47;53.79
13050;BME280;6591;51.446;5.404;2022-12-07T06:17:18;101450.91;;;10.42;53.85
13050;BME280;6591;51.446;5.404;2022-12-07T06:19:45;101463.41;;;10.39;54.39
13050;BME280;6591;51.446;5.404;2022-12-07T06:22:12;101453.78;;;10.36;54.67
13050;BME280;6591;51.446;5.404;2022-12-07T06:24:40;101462.66;;;10.35;54.45
13050;BME280;6591;51.446;5.404;2022-12-07T06:27:10;101456.53;;;10.33;54.44
13050;BME280;6591;51.446;5.404;2022-12-07T06:29:37;101452.25;;;10.29;53.81
13050;BME280;6591;51.446;5.404;2022-12-07T06:32:05;101455.06;;;10.25;53.91
13050;BME280;6591;51.446;5.404;2022-12-07T06:34:32;101461.38;;;10.20;54.15
13050;BME280;6591;51.446;5.404;2022-12-07T06:36:59;101451.75;;;10.18;53.71
13050;BME280;6591;51.446;5.404;2022-12-07T06:39:28;101451.88;;;10.13;54.12
13050;BME280;6591;51.446;5.404;2022-12-07T06:41:56;101458.13;;;10.11;53.79
13050;BME280;6591;51.446;5.404;2022-12-07T06:44:24;101453.88;;;10.07;54.28
13050;BME280;6591;51.446;5.404;2022-12-07T06:46:52;101450.38;;;10.05;54.57
13050;BME280;6591;51.446;5.404;2022-12-07T06:49:39;101460.19;;;10.03;54.76
13050;BME280;6591;51.446;5.404;2022-12-07T06:52:06;101469.94;;;10.02;55.07
13050;BME280;6591;51.446;5.404;2022-12-07T06:54:33;101462.84;;;10.03;55.00
13050;BME280;6591;51.446;5.404;2022-12-07T06:57:00;101469.06;;;10.02;54.47
13050;BME280;6591;51.446;5.404;2022-12-07T06:59:27;101458.41;;;10.03;54.76
13050;BME280;6591;51.446;5.404;2022-12-07T07:01:54;101468.16;;;10.03;54.84
13050;BME280;6591;51.446;5.404;2022-12-07T07:04:21;101457.63;;;10.00;54.87
13050;BME280;6591;51.446;5.404;2022-12-07T07:06:48;101457.53;;;10.03;54.46
13050;BME280;6591;51.446;5.404;2022-12-07T07:09:15;101456.72;;;10.01;54.62
13050;BME280;6591;51.446;5.404;2022-12-07T07:11:42;101455.84;;;10.00;55.00
13050;BME280;6591;51.446;5.404;2022-12-07T07:14:09;101471.84;;;9.99;54.57
13050;BME280;6591;51.446;5.404;2022-12-07T07:16:36;101458.59;;;9.97;54.50
13050;BME280;6591;51.446;5.404;2022-12-07T07:19:04;101461.38;;;9.94;54.20
13050;BME280;6591;51.446;5.404;2022-12-07T07:21:31;101468.47;;;9.94;54.19
13050;BME280;6591;51.446;5.404;2022-12-07T07:23:58;101465.94;;;9.89;54.60
13050;BME280;6591;51.446;5.404;2022-12-07T07:26:25;101462.47;;;9.87;54.36
13050;BME280;6591;51.446;5.404;2022-12-07T07:28:52;101467.78;;;9.87;54.43
13050;BME280;6591;51.446;5.404;2022-12-07T07:31:19;101458.19;;;9.83;54.64
13050;BME280;6591;51.446;5.404;2022-12-07T07:33:47;101466.16;;;9.83;54.31
13050;BME280;6591;51.446;5.404;2022-12-07T07:36:14;101456.47;;;9.82;54.63
13050;BME280;6591;51.446;5.404;2022-12-07T07:38:41;101462.69;;;9.81;54.79
13050;BME280;6591;51.446;5.404;2022-12-07T07:41:08;101461.75;;;9.82;55.07
13050;BME280;6591;51.446;5.404;2022-12-07T07:43:35;101473.25;;;9.83;55.03
13050;BME280;6591;51.446;5.404;2022-12-07T07:46:02;101477.63;;;9.84;55.47
13050;BME280;6591;51.446;5.404;2022-12-07T07:48:32;101478.34;;;9.89;55.58
13050;BME280;6591;51.446;5.404;2022-12-07T07:50:59;101479.97;;;9.93;55.30
13050;BME280;6591;51.446;5.404;2022-12-07T07:53:26;101480.75;;;9.96;55.39
13050;BME280;6591;51.446;5.404;2022-12-07T07:55:54;101482.38;;;10.00;55.13
13050;BME280;6591;51.446;5.404;2022-12-07T07:58:21;101470.75;;;10.04;55.45
13050;BME280;6591;51.446;5.404;2022-12-07T08:00:49;101471.53;;;10.08;55.07
13050;BME280;6591;51.446;5.404;2022-12-07T08:03:16;101474.00;;;10.12;55.35
13050;BME280;6591;51.446;5.404;2022-12-07T08:05:44;101471.25;;;10.15;55.18
13050;BME280;6591;51.446;5.404;2022-12-07T08:08:11;101472.97;;;10.18;55.23
13050;BME280;6591;51.446;5.404;2022-12-07T08:10:38;101472.00;;;10.20;55.22
13050;BME280;6591;51.446;5.404;2022-12-07T08:13:07;101476.38;;;10.22;55.35
13050;BME280;6591;51.446;5.404;2022-12-07T08:15:40;101475.44;;;10.24;55.17
13050;BME280;6591;51.446;5.404;2022-12-07T08:18:08;101486.84;;;10.26;55.23
13050;BME280;6591;51.446;5.404;2022-12-07T08:20:36;101482.31;;;10.30;55.43
13050;BME280;6591;51.446;5.404;2022-12-07T08:23:08;101487.50;;;10.33;55.44
13050;BME280;6591;51.446;5.404;2022-12-07T08:25:36;101487.44;;;10.36;55.70
13050;BME280;6591;51.446;5.404;2022-12-07T08:28:06;101490.78;;;10.41;55.52
13050;BME280;6591;51.446;5.404;2022-12-07T08:30:33;101487.97;;;10.45;55.74
13050;BME280;6591;51.446;5.404;2022-12-07T08:33:00;101490.47;;;10.50;55.79
13050;BME280;6591;51.446;5.404;2022-12-07T08:35:27;101494.69;;;10.55;55.63
13050;BME280;6591;51.446;5.404;2022-12-07T08:37:56;101499.84;;;10.60;55.75
13050;BME280;6591;51.446;5.404;2022-12-07T08:40:24;101499.63;;;10.66;55.51
13050;BME280;6591;51.446;5.404;2022-12-07T08:42:51;101504.75;;;10.72;55.26
13050;BME280;6591;51.446;5.404;2022-12-07T08:45:20;101491.22;;;10.78;55.69
13050;BME280;6591;51.446;5.404;2022-12-07T08:48:01;101490.13;;;10.84;55.90
13050;BME280;6591;51.446;5.404;2022-12-07T08:50:32;101497.72;;;10.94;55.78
13050;BME280;6591;51.446;5.404;2022-12-07T08:53:00;101488.66;;;11.00;55.94
13050;BME280;6591;51.446;5.404;2022-12-07T08:55:28;101488.38;;;11.08;55.65
13050;BME280;6591;51.446;5.404;2022-12-07T08:57:58;101489.03;;;11.14;55.43
13050;BME280;6591;51.446;5.404;2022-12-07T09:00:26;101494.97;;;11.21;55.75
13050;BME280;6591;51.446;5.404;2022-12-07T09:02:54;101490.28;;;11.27;55.58
13050;BME280;6591;51.446;5.404;2022-12-07T09:05:21;101492.84;;;11.30;55.80
13050;BME280;6591;51.446;5.404;2022-12-07T09:07:55;101498.00;;;11.35;55.96
13050;BME280;6591;51.446;5.404;2022-12-07T09:10:24;101494.28;;;11.39;55.57
13050;BME280;6591;51.446;5.404;2022-12-07T09:12:51;101493.22;;;11.43;55.61
13050;BME280;6591;51.446;5.404;2022-12-07T09:15:18;101487.63;;;11.51;55.71
13050;BME280;6591;51.446;5.404;2022-12-07T09:17:46;101486.53;;;11.56;55.71
13050;BME280;6591;51.446;5.404;2022-12-07T09:20:13;101489.75;;;11.64;55.92
13050;BME280;6591;51.446;5.404;2022-12-07T09:22:40;101490.41;;;11.69;55.52
13050;BME280;6591;51.446;5.404;2022-12-07T09:25:07;101486.63;;;11.76;55.79
13050;BME280;6591;51.446;5.404;2022-12-07T09:27:34;101481.88;;;11.84;55.97
13050;BME280;6591;51.446;5.404;2022-12-07T09:30:02;101486.13;;;11.88;56.03
13050;BME280;6591;51.446;5.404;2022-12-07T09:32:32;101483.34;;;11.92;55.79
13050;BME280;6591;51.446;5.404;2022-12-07T09:34:59;101483.22;;;11.95;55.19
13050;BME280;6591;51.446;5.404;2022-12-07T09:37:26;101477.78;;;11.98;54.83
13050;BME280;6591;51.446;5.404;2022-12-07T09:39:53;101490.28;;;11.96;54.55
13050;BME280;6591;51.446;5.404;2022-12-07T09:42:31;101485.97;;;11.93;54.33
13050;BME280;6591;51.446;5.404;2022-12-07T09:45:01;101490.34;;;11.94;54.59
13050;BME280;6591;51.446;5.404;2022-12-07T09:47:29;101489.47;;;11.94;54.79
13050;BME280;6591;51.446;5.404;2022-12-07T09:50:12;101489.59;;;11.91;54.52
13050;BME280;6591;51.446;5.404;2022-12-07T09:52:43;101485.19;;;11.89;54.51
13050;BME280;6591;51.446;5.404;2022-12-07T09:55:26;101487.09;;;11.87;55.17
13050;BME280;6591;51.446;5.404;2022-12-07T09:57:55;101493.19;;;11.89;54.80
13050;BME280;6591;51.446;5.404;2022-12-07T10:00:23;101495.75;;;11.93;55.00
13050;BME280;6591;51.446;5.404;2022-12-07T10:02:59;101484.97;;;11.96;55.56
13050;BME280;6591;51.446;5.404;2022-12-07T10:05:36;101493.47;;;12.04;55.36
13050;BME280;6591;51.446;5.404;2022-12-07T10:08:12;101475.38;;;12.13;55.76
13050;BME280;6591;51.446;5.404;2022-12-07T10:10:40;101481.03;;;12.26;56.13
13050;BME280;6591;51.446;5.404;2022-12-07T10:13:14;101478.56;;;12.42;56.33
13050;BME280;6591;51.446;5.404;2022-12-07T10:15:57;101472.69;;;12.55;56.13
13050;BME280;6591;51.446;5.404;2022-12-07T10:18:41;101460.47;;;12.70;56.03
13050;BME280;6591;51.446;5.404;2022-12-07T10:29:32;101449.44;;;13.37;55.96
13050;BME280;6591;51.446;5.404;2022-12-07T10:34:46;101438.31;;;13.65;55.17
13050;BME280;6591;51.446;5.404;2022-12-07T10:37:29;101436.13;;;13.73;54.72
13050;BME280;6591;51.446;5.404;2022-12-07T10:40:35;101435.25;;;13.72;54.77
13050;BME280;6591;51.446;5.404;2022-12-07T10:51:47;101435.03;;;13.77;53.78
13050;BME280;6591;51.446;5.404;2022-12-07T11:05:40;101414.53;;;13.60;54.51
13050;BME280;6591;51.446;5.404;2022-12-07T11:09:03;101418.84;;;13.63;55.10
13050;BME280;6591;51.446;5.404;2022-12-07T11:11:54;101405.91;;;13.72;55.09
13050;BME280;6591;51.446;5.404;2022-12-07T11:14:56;101401.75;;;13.84;55.41
13050;BME280;6591;51.446;5.404;2022-12-07T11:20:53;101396.69;;;14.14;54.97
13050;BME280;6591;51.446;5.404;2022-12-07T11:35:09;101382.66;;;14.60;54.30
13050;BME280;6591;51.446;5.404;2022-12-07T11:37:39;101376.84;;;14.69;54.21
13050;BME280;6591;51.446;5.404;2022-12-07T11:40:28;101372.19;;;14.73;54.20
13050;BME280;6591;51.446;5.404;2022-12-07T11:43:32;101375.81;;;14.72;53.78
13050;BME280;6591;51.446;5.404;2022-12-07T11:46:15;101372.38;;;14.70;53.60
13050;BME280;6591;51.446;5.404;2022-12-07T11:48:59;101370.66;;;14.69;53.57
13050;BME280;6591;51.446;5.404;2022-12-07T11:51:37;101363.56;;;14.68;53.52
13050;BME280;6591;51.446;5.404;2022-12-07T11:54:23;101369.97;;;14.65;53.52
13050;BME280;6591;51.446;5.404;2022-12-07T11:56:53;101370.78;;;14.66;53.29
13050;BME280;6591;51.446;5.404;2022-12-07T11:59:40;101382.34;;;14.66;53.25
13050;BME280;6591;51.446;5.404;2022-12-07T12:02:21;101369.22;;;14.62;53.19
13050;BME280;6591;51.446;5.404;2022-12-07T12:04:59;101374.75;;;14.59;53.04
13050;BME280;6591;51.446;5.404;2022-12-07T12:07:31;101375.53;;;14.61;53.14
13050;BME280;6591;51.446;5.404;2022-12-07T12:10:37;101368.63;;;14.57;53.09
13050;BME280;6591;51.446;5.404;2022-12-07T12:17:22;101360.84;;;14.52;53.50
13050;BME280;6591;51.446;5.404;2022-12-07T12:20:15;101355.44;;;14.54;53.63
13050;BME280;6591;51.446;5.404;2022-12-07T12:25:25;101348.78;;;14.61;53.38
13050;BME280;6591;51.446;5.404;2022-12-07T12:27:58;101348.72;;;14.62;53.43
13050;BME280;6591;51.446;5.404;2022-12-07T12:30:38;101348.78;;;14.61;53.19
13050;BME280;6591;51.446;5.404;2022-12-07T12:33:28;101344.56;;;14.57;52.96
13050;BME280;6591;51.446;5.404;2022-12-07T12:39:17;101332.16;;;14.56;53.46
13050;BME280;6591;51.446;5.404;2022-12-07T12:54:37;101316.84;;;14.75;53.24
13050;BME280;6591;51.446;5.404;2022-12-07T12:57:30;101306.91;;;14.77;53.03
13050;BME280;6591;51.446;5.404;2022-12-07T13:00:22;101303.91;;;14.83;52.89
13050;BME280;6591;51.446;5.404;2022-12-07T13:02:54;101305.31;;;14.90;52.83
13050;BME280;6591;51.446;5.404;2022-12-07T13:05:28;101304.25;;;14.93;52.60
13050;BME280;6591;51.446;5.404;2022-12-07T13:08:24;101302.03;;;14.85;52.20
13050;BME280;6591;51.446;5.404;2022-12-07T13:11:29;101301.31;;;14.81;52.21
13050;BME280;6591;51.446;5.404;2022-12-07T13:20:19;101287.00;;;14.67;51.93
13050;BME280;6591;51.446;5.404;2022-12-07T13:22:59;101287.09;;;14.65;51.85
13050;BME280;6591;51.446;5.404;2022-12-07T13:25:43;101291.13;;;14.57;52.12
13050;BME280;6591;51.446;5.404;2022-12-07T13:28:21;101290.59;;;14.50;51.80
13050;BME280;6591;51.446;5.404;2022-12-07T13:33:37;101282.38;;;14.37;51.70
13050;BME280;6591;51.446;5.404;2022-12-07T13:36:18;101285.53;;;14.28;51.73
13050;BME280;6591;51.446;5.404;2022-12-07T13:38:59;101282.38;;;14.20;51.73
13050;BME280;6591;51.446;5.404;2022-12-07T13:41:28;101281.16;;;14.10;51.59
13050;BME280;6591;51.446;5.404;2022-12-07T13:44:02;101275.44;;;14.00;51.63
13050;BME280;6591;51.446;5.404;2022-12-07T13:49:24;101273.72;;;13.82;52.31
13050;BME280;6591;51.446;5.404;2022-12-07T13:51:53;101281.03;;;13.79;52.57
13050;BME280;6591;51.446;5.404;2022-12-07T13:54:22;101272.22;;;13.77;52.12
13050;BME280;6591;51.446;5.404;2022-12-07T13:56:52;101271.38;;;13.76;52.78
13050;BME280;6591;51.446;5.404;2022-12-07T13:59:24;101267.69;;;13.79;53.04
13050;BME280;6591;51.446;5.404;2022-12-07T14:01:53;101259.34;;;13.85;53.17
13050;BME280;6591;51.446;5.404;2022-12-07T14:06:53;101253.38;;;13.97;53.09
13050;BME280;6591;51.446;5.404;2022-12-07T14:09:26;101261.84;;;14.05;53.35
13050;BME280;6591;51.446;5.404;2022-12-07T14:11:56;101256.19;;;14.11;53.07
13050;BME280;6591;51.446;5.404;2022-12-07T14:14:30;101254.25;;;14.13;52.81
13050;BME280;6591;51.446;5.404;2022-12-07T14:17:21;101246.19;;;14.15;52.78
13050;BME280;6591;51.446;5.404;2022-12-07T14:19:58;101236.22;;;14.18;52.76
13050;BME280;6591;51.446;5.404;2022-12-07T14:22:34;101236.97;;;14.20;52.47
13050;BME280;6591;51.446;5.404;2022-12-07T14:25:18;101234.38;;;14.19;52.59
13050;BME280;6591;51.446;5.404;2022-12-07T14:27:58;101239.81;;;14.17;52.42
13050;BME280;6591;51.446;5.404;2022-12-07T14:30:33;101231.09;;;14.14;52.58
13050;BME280;6591;51.446;5.404;2022-12-07T14:33:04;101232.91;;;14.13;52.35
13050;BME280;6591;51.446;5.404;2022-12-07T14:35:32;101227.66;;;14.12;52.11
13050;BME280;6591;51.446;5.404;2022-12-07T14:37:59;101218.94;;;14.08;52.15
13050;BME280;6591;51.446;5.404;2022-12-07T14:40:28;101221.72;;;14.07;52.08
13050;BME280;6591;51.446;5.404;2022-12-07T14:43:11;101222.19;;;13.97;51.88
13050;BME280;6591;51.446;5.404;2022-12-07T14:45:40;101222.34;;;13.94;51.92
13050;BME280;6591;51.446;5.404;2022-12-07T14:48:14;101224.59;;;13.86;51.64
13050;BME280;6591;51.446;5.404;2022-12-07T14:51:02;101225.78;;;13.81;51.83
13050;BME280;6591;51.446;5.404;2022-12-07T14:53:52;101219.19;;;13.71;52.08
13050;BME280;6591;51.446;5.404;2022-12-07T14:56:24;101219.50;;;13.65;51.76
13050;BME280;6591;51.446;5.404;2022-12-07T14:58:51;101218.31;;;13.53;51.85
13050;BME280;6591;51.446;5.404;2022-12-07T15:01:18;101223.09;;;13.46;52.17
13050;BME280;6591;51.446;5.404;2022-12-07T15:03:45;101222.47;;;13.41;52.52
13050;BME280;6591;51.446;5.404;2022-12-07T15:06:16;101220.13;;;13.35;52.24
13050;BME280;6591;51.446;5.404;2022-12-07T15:08:43;101215.88;;;13.31;52.10
13050;BME280;6591;51.446;5.404;2022-12-07T15:11:16;101216.13;;;13.27;52.53
13050;BME280;6591;51.446;5.404;2022-12-07T15:13:44;101212.66;;;13.25;52.26
13050;BME280;6591;51.446;5.404;2022-12-07T15:16:35;101207.78;;;13.15;51.73
13050;BME280;6591;51.446;5.404;2022-12-07T15:19:23;101204.53;;;13.09;52.31
13050;BME280;6591;51.446;5.404;2022-12-07T15:21:57;101208.28;;;13.05;51.70
13050;BME280;6591;51.446;5.404;2022-12-07T15:24:25;101212.13;;;12.99;52.16
13050;BME280;6591;51.446;5.404;2022-12-07T15:26:53;101204.59;;;12.90;51.36